createdAt,value
2022-12-04T00:00:41.164Z,77.85
2022-12-04T00:01:41.279Z,77.85
2022-12-04T00:02:41.469Z,77.75
2022-12-04T00:03:41.500Z,77.75
2022-12-04T00:04:41.564Z,77.75
2022-12-04T00:05:41.572Z,77.75
2022-12-04T00:06:41.713Z,77.75
2022-12-04T00:07:41.887Z,77.75
2022-12-04T00:08:41.851Z,77.64
2022-12-04T00:09:41.913Z,77.64
2022-12-04T00:10:41.975Z,77.64
2022-12-04T00:11:42.065Z,77.64
2022-12-04T00:12:42.176Z,77.64
2022-12-04T00:13:42.235Z,77.64
2022-12-04T00:15:16.400Z,77.64
2022-12-04T00:15:42.407Z,77.54
2022-12-04T00:16:42.580Z,77.54
2022-12-04T00:17:42.577Z,77.64
2022-12-04T00:18:42.658Z,77.54
2022-12-04T00:19:42.716Z,77.64
2022-12-04T00:20:42.843Z,77.64
2022-12-04T00:21:42.972Z,77.54
2022-12-04T00:22:43.021Z,77.54
2022-12-04T00:23:43.132Z,77.44
2022-12-04T00:24:43.163Z,77.44
2022-12-04T00:25:43.231Z,77.44
2022-12-04T00:26:43.364Z,77.33
2022-12-04T00:27:43.378Z,77.44
2022-12-04T00:28:43.464Z,77.44
2022-12-04T00:29:43.499Z,77.44
2022-12-04T00:30:43.633Z,77.44
2022-12-04T00:31:43.832Z,77.44
2022-12-04T00:32:43.856Z,77.33
2022-12-04T00:33:43.853Z,77.33
2022-12-04T00:34:43.963Z,77.23
2022-12-04T00:35:43.984Z,77.33
2022-12-04T00:36:44.118Z,77.33
2022-12-04T00:37:44.190Z,77.33
2022-12-04T00:38:44.261Z,77.44
2022-12-04T00:39:44.355Z,77.54
2022-12-04T00:40:44.396Z,77.54
2022-12-04T00:41:44.501Z,77.54
2022-12-04T00:42:44.548Z,77.54
2022-12-04T00:43:44.630Z,77.54
2022-12-04T00:44:44.714Z,77.54
2022-12-04T00:45:44.889Z,77.54
2022-12-04T00:46:44.975Z,77.54
2022-12-04T00:47:44.974Z,77.54
2022-12-04T00:48:45.045Z,77.54
2022-12-04T00:49:45.110Z,77.64
2022-12-04T00:50:45.169Z,77.64
2022-12-04T00:51:45.316Z,77.54
2022-12-04T00:52:45.352Z,77.54
2022-12-04T00:53:45.433Z,77.54
2022-12-04T00:54:45.508Z,77.54
2022-12-04T00:55:45.578Z,77.54
2022-12-04T00:56:45.676Z,77.54
2022-12-04T00:57:45.731Z,77.54
2022-12-04T00:58:45.853Z,77.54
2022-12-04T00:59:45.929Z,77.54
2022-12-04T01:00:46.038Z,77.54
2022-12-04T01:01:46.179Z,77.54
2022-12-04T01:02:46.188Z,77.44
2022-12-04T01:03:46.231Z,77.33
2022-12-04T01:04:46.344Z,77.23
2022-12-04T01:05:46.376Z,77.23
2022-12-04T01:06:46.497Z,77.12
2022-12-04T01:07:46.699Z,77.02
2022-12-04T01:08:46.665Z,76.92
2022-12-04T01:09:46.689Z,76.92
2022-12-04T01:10:46.764Z,76.92
2022-12-04T01:11:46.856Z,76.92
2022-12-04T01:12:46.931Z,76.92
2022-12-04T01:13:46.987Z,77.02
2022-12-04T01:14:47.069Z,77.02
2022-12-04T01:15:47.162Z,77.02
2022-12-04T01:16:47.303Z,77.02
2022-12-04T01:17:47.324Z,76.92
2022-12-04T01:18:47.391Z,76.92
2022-12-04T01:19:47.472Z,76.92
2022-12-04T01:20:47.557Z,76.92
2022-12-04T01:21:47.650Z,76.81
2022-12-04T01:22:47.732Z,76.81
2022-12-04T01:23:47.815Z,76.81
2022-12-04T01:24:47.892Z,76.92
2022-12-04T01:25:48.008Z,76.92
2022-12-04T01:26:48.113Z,76.92
2022-12-04T01:27:48.127Z,76.92
2022-12-04T01:28:48.239Z,76.92
2022-12-04T01:29:48.310Z,77.02
2022-12-04T01:30:48.409Z,77.02
2022-12-04T01:31:48.641Z,77.02
2022-12-04T01:32:48.551Z,77.02
2022-12-04T01:33:48.613Z,77.02
2022-12-04T01:34:48.697Z,77.02
2022-12-04T01:35:48.792Z,77.02
2022-12-04T01:36:48.974Z,77.02
2022-12-04T01:37:48.956Z,77.02
2022-12-04T01:38:49.159Z,77.02
2022-12-04T01:39:49.114Z,77.02
2022-12-04T01:40:49.254Z,77.02
2022-12-04T01:41:49.306Z,77.02
2022-12-04T01:42:49.376Z,77.02
2022-12-04T01:43:49.436Z,77.02
2022-12-04T01:44:49.518Z,77.02
2022-12-04T01:45:49.655Z,77.02
2022-12-04T01:46:49.668Z,77.02
2022-12-04T01:47:49.750Z,77.02
2022-12-04T01:48:49.822Z,76.92
2022-12-04T01:49:49.908Z,77.02
2022-12-04T01:50:50.055Z,77.02
2022-12-04T01:51:50.149Z,77.02
2022-12-04T01:52:50.238Z,77.02
2022-12-04T01:53:50.268Z,77.02
2022-12-04T01:54:50.375Z,77.02
2022-12-04T01:55:50.427Z,77.02
2022-12-04T01:56:50.565Z,77.12
2022-12-04T01:57:50.595Z,77.12
2022-12-04T01:58:50.677Z,77.12
2022-12-04T01:59:50.803Z,77.12
2022-12-04T02:00:51.851Z,77.23
2022-12-04T02:01:51.094Z,77.23
2022-12-04T02:02:51.071Z,77.23
2022-12-04T02:03:51.048Z,77.23
2022-12-04T02:04:51.139Z,77.23
2022-12-04T02:05:51.242Z,77.23
2022-12-04T02:06:51.338Z,77.23
2022-12-04T02:07:51.450Z,77.23
2022-12-04T02:08:51.556Z,77.23
2022-12-04T02:09:51.609Z,77.23
2022-12-04T02:10:51.685Z,77.23
2022-12-04T02:11:51.784Z,77.23
2022-12-04T02:12:51.893Z,77.23
2022-12-04T02:13:51.930Z,77.23
2022-12-04T02:14:52.013Z,77.23
2022-12-04T02:15:52.097Z,77.23
2022-12-04T02:16:52.298Z,77.23
2022-12-04T02:17:52.265Z,77.23
2022-12-04T02:18:52.326Z,77.12
2022-12-04T02:19:52.799Z,77.12
2022-12-04T02:20:52.459Z,77.12
2022-12-04T02:21:52.589Z,77.12
2022-12-04T02:22:52.575Z,77.12
2022-12-04T02:23:52.688Z,77.12
2022-12-04T02:24:52.750Z,77.23
2022-12-04T02:25:52.861Z,77.20
2022-12-04T02:26:52.951Z,77.23
2022-12-04T02:27:53.045Z,77.20
2022-12-04T02:28:53.090Z,77.23
2022-12-04T02:29:53.693Z,77.20
2022-12-04T02:30:53.320Z,77.09
2022-12-04T02:31:53.366Z,77.12
2022-12-04T02:32:53.384Z,77.09
2022-12-04T02:33:53.481Z,77.09
2022-12-04T02:34:53.553Z,77.09
2022-12-04T02:35:53.625Z,77.09
2022-12-04T02:36:53.705Z,76.99
2022-12-04T02:37:53.811Z,76.99
2022-12-04T02:38:53.845Z,76.99
2022-12-04T02:39:54.285Z,76.99
2022-12-04T02:40:54.002Z,76.99
2022-12-04T02:41:54.163Z,77.09
2022-12-04T02:42:54.191Z,77.12
2022-12-04T02:43:54.327Z,77.09
2022-12-04T02:44:54.363Z,77.09
2022-12-04T02:45:54.522Z,77.09
2022-12-04T02:46:54.529Z,77.09
2022-12-04T02:47:54.705Z,77.09
2022-12-04T02:48:54.705Z,77.09
2022-12-04T02:49:55.112Z,76.99
2022-12-04T02:50:54.835Z,76.99
2022-12-04T02:51:54.949Z,76.99
2022-12-04T02:52:55.044Z,77.09
2022-12-04T02:53:55.071Z,77.09
2022-12-04T02:54:55.132Z,77.09
2022-12-04T02:55:55.239Z,76.99
2022-12-04T02:56:55.317Z,76.99
2022-12-04T02:57:55.448Z,76.89
2022-12-04T02:58:55.473Z,76.78
2022-12-04T02:59:56.666Z,76.81
2022-12-04T03:00:55.728Z,76.81
2022-12-04T03:01:55.908Z,76.81
2022-12-04T03:02:55.887Z,76.81
2022-12-04T03:03:55.922Z,76.81
2022-12-04T03:04:56.028Z,76.81
2022-12-04T03:05:56.090Z,76.92
2022-12-04T03:06:56.232Z,76.92
2022-12-04T03:07:56.346Z,76.92
2022-12-04T03:08:56.404Z,76.92
2022-12-04T03:09:56.818Z,76.92
2022-12-04T03:10:56.545Z,77.02
2022-12-04T03:11:56.638Z,77.02
2022-12-04T03:12:56.726Z,77.02
2022-12-04T03:13:56.807Z,77.12
2022-12-04T03:14:56.889Z,77.12
2022-12-04T03:15:56.978Z,77.12
2022-12-04T03:16:57.131Z,77.23
2022-12-04T03:17:57.122Z,77.23
2022-12-04T03:18:57.179Z,77.23
2022-12-04T03:19:57.583Z,77.33
2022-12-04T03:20:57.412Z,77.30
2022-12-04T03:21:57.496Z,77.33
2022-12-04T03:22:57.577Z,77.33
2022-12-04T03:23:57.649Z,77.30
2022-12-04T03:24:57.742Z,77.33
2022-12-04T03:25:57.810Z,77.23
2022-12-04T03:26:57.905Z,77.23
2022-12-04T03:27:57.990Z,77.12
2022-12-04T03:28:58.055Z,77.12
2022-12-04T03:29:58.290Z,77.12
2022-12-04T03:30:58.265Z,77.12
2022-12-04T03:31:58.337Z,77.12
2022-12-04T03:32:58.469Z,77.12
2022-12-04T03:33:58.512Z,77.12
2022-12-04T03:34:58.584Z,77.12
2022-12-04T03:35:58.709Z,77.23
2022-12-04T03:36:58.777Z,77.23
2022-12-04T03:37:58.867Z,77.23
2022-12-04T03:38:58.937Z,77.33
2022-12-04T03:39:59.012Z,77.33
2022-12-04T03:40:59.106Z,77.44
2022-12-04T03:41:59.172Z,77.44
2022-12-04T03:42:59.249Z,77.44
2022-12-04T03:43:59.437Z,77.44
2022-12-04T03:44:59.453Z,77.44
2022-12-04T03:45:59.567Z,77.44
2022-12-04T03:46:59.609Z,77.44
2022-12-04T03:47:59.679Z,77.44
2022-12-04T03:48:59.770Z,77.44
2022-12-04T03:49:59.857Z,77.44
2022-12-04T03:50:59.963Z,77.44
2022-12-04T03:52:00.093Z,77.44
2022-12-04T08:57:05.877Z,84.18
2022-12-04T09:00:38.498Z,84.14
2022-12-04T09:01:39.654Z,84.04
2022-12-04T09:02:39.603Z,84.14
2022-12-04T09:04:52.373Z,84.00
2022-12-04T09:05:52.907Z,83.90
2022-12-04T09:06:53.055Z,83.80
2022-12-04T09:07:53.083Z,83.80
2022-12-04T09:08:53.165Z,83.65
2022-12-04T09:09:53.280Z,83.54
2022-12-04T09:10:53.331Z,83.44
2022-12-04T09:11:53.435Z,83.34
2022-12-04T09:12:53.478Z,83.34
2022-12-04T09:13:53.613Z,83.20
2022-12-04T09:14:53.721Z,83.09
2022-12-04T09:15:53.797Z,83.09
2022-12-04T09:16:53.859Z,82.99
2022-12-04T09:17:53.942Z,82.99
2022-12-04T09:18:54.031Z,82.99
2022-12-04T09:19:59.273Z,82.84
2022-12-04T09:20:54.214Z,82.84
2022-12-04T09:21:54.316Z,82.74
2022-12-04T09:23:03.993Z,82.74
2022-12-04T09:23:54.437Z,82.64
2022-12-04T09:24:54.557Z,82.64
2022-12-04T09:25:54.574Z,82.53
2022-12-04T09:26:54.705Z,82.50
2022-12-04T09:27:54.773Z,82.39
2022-12-04T09:28:54.866Z,82.39
2022-12-04T09:29:55.195Z,82.29
2022-12-04T09:30:55.067Z,82.18
2022-12-04T09:31:55.142Z,82.08
2022-12-04T09:32:55.187Z,82.08
2022-12-04T09:33:55.285Z,82.08
2022-12-04T09:34:55.412Z,81.98
2022-12-04T09:35:55.472Z,81.98
2022-12-04T09:36:55.543Z,81.84
2022-12-04T09:37:55.567Z,81.84
2022-12-04T09:38:55.695Z,81.73
2022-12-04T09:39:55.958Z,81.63
2022-12-04T09:40:55.827Z,81.63
2022-12-04T09:41:55.968Z,81.52
2022-12-04T09:42:56.028Z,81.52
2022-12-04T09:43:56.110Z,81.52
2022-12-04T09:44:56.233Z,81.52
2022-12-04T09:45:56.339Z,81.42
2022-12-04T09:46:56.489Z,81.42
2022-12-04T09:47:56.461Z,81.32
2022-12-04T09:48:56.510Z,81.32
2022-12-04T09:49:56.772Z,81.32
2022-12-04T09:50:56.698Z,81.32
2022-12-04T09:51:56.786Z,81.21
2022-12-04T09:52:56.915Z,81.21
2022-12-04T09:53:56.968Z,81.21
2022-12-04T09:54:57.036Z,81.21
2022-12-04T09:55:57.143Z,81.21
2022-12-04T09:56:57.256Z,81.21
2022-12-04T09:58:01.825Z,81.21
2022-12-04T09:58:57.360Z,81.07
2022-12-04T09:59:57.701Z,81.01
2022-12-04T10:00:57.480Z,80.97
2022-12-04T10:01:57.594Z,80.97
2022-12-04T10:02:57.792Z,80.97
2022-12-04T10:04:04.138Z,80.87
2022-12-04T10:04:57.831Z,80.87
2022-12-04T10:05:57.913Z,80.87
2022-12-04T10:06:58.032Z,80.76
2022-12-04T10:07:58.135Z,80.76
2022-12-04T10:08:58.160Z,80.76
2022-12-04T10:09:58.581Z,80.76
2022-12-04T10:10:58.340Z,80.76
2022-12-04T10:11:58.495Z,80.66
2022-12-04T10:12:58.495Z,80.66
2022-12-04T10:13:58.571Z,80.66
2022-12-04T10:14:58.662Z,80.66
2022-12-04T10:15:58.863Z,80.66
2022-12-04T10:16:58.857Z,80.66
2022-12-04T10:17:58.920Z,80.66
2022-12-04T10:18:59.010Z,80.66
2022-12-04T10:19:59.261Z,80.66
2022-12-04T10:20:59.217Z,80.66
2022-12-04T10:21:59.269Z,80.76
2022-12-04T10:22:59.355Z,80.66
2022-12-04T10:23:59.443Z,80.66
2022-12-04T10:24:59.556Z,80.76
2022-12-04T10:25:59.751Z,80.76
2022-12-04T10:26:59.779Z,80.76
2022-12-04T10:27:59.793Z,80.76
2022-12-04T10:28:59.883Z,80.76
2022-12-04T10:29:59.964Z,80.76
2022-12-04T10:31:00.080Z,80.76
2022-12-04T10:32:00.134Z,80.76
2022-12-04T10:33:00.233Z,80.76
2022-12-04T10:34:00.328Z,80.76
2022-12-04T10:35:00.464Z,80.76
2022-12-04T10:36:00.520Z,80.76
2022-12-04T10:37:00.650Z,80.76
2022-12-04T10:38:00.733Z,80.66
2022-12-04T10:39:00.792Z,80.66
2022-12-04T10:40:00.865Z,80.62
2022-12-04T10:41:00.959Z,80.62
2022-12-04T10:42:01.073Z,80.62
2022-12-04T10:43:01.144Z,80.66
2022-12-04T10:44:01.198Z,80.52
2022-12-04T10:45:01.279Z,80.52
2022-12-04T10:46:01.348Z,80.55
2022-12-04T10:47:01.861Z,80.55
2022-12-04T10:48:01.494Z,80.52
2022-12-04T10:49:01.621Z,80.41
2022-12-04T10:50:01.743Z,80.45
2022-12-04T10:51:01.786Z,80.41
2022-12-04T10:52:01.864Z,80.45
2022-12-04T10:53:01.896Z,80.45
2022-12-04T10:54:02.056Z,80.45
2022-12-04T10:55:02.122Z,80.45
2022-12-04T10:56:02.132Z,80.45
2022-12-04T10:57:02.240Z,80.45
2022-12-04T10:58:02.282Z,80.45
2022-12-04T10:59:02.378Z,80.45
2022-12-04T11:00:02.448Z,80.45
2022-12-04T11:01:02.540Z,80.45
2022-12-04T11:02:06.552Z,80.41
2022-12-04T11:03:02.850Z,80.45
2022-12-04T11:04:02.784Z,80.41
2022-12-04T11:05:02.878Z,80.41
2022-12-04T11:06:02.909Z,80.31
2022-12-04T11:07:03.020Z,80.41
2022-12-04T11:08:03.147Z,80.31
2022-12-04T11:09:03.139Z,80.31
2022-12-04T11:10:03.263Z,80.31
2022-12-04T11:11:03.318Z,80.31
2022-12-04T11:12:03.449Z,80.31
2022-12-04T11:13:03.469Z,80.31
2022-12-04T11:14:03.541Z,80.31
2022-12-04T11:15:03.658Z,80.31
2022-12-04T11:16:03.835Z,80.31
2022-12-04T11:17:03.823Z,80.31
2022-12-04T11:18:03.884Z,80.31
2022-12-04T11:19:03.954Z,80.31
2022-12-04T11:20:04.023Z,80.31
2022-12-04T11:21:04.109Z,80.31
2022-12-04T11:22:04.202Z,80.31
2022-12-04T11:23:04.305Z,80.31
2022-12-04T11:24:04.350Z,80.31
2022-12-04T11:25:04.465Z,80.31
2022-12-04T11:26:06.489Z,80.21
2022-12-04T11:27:04.628Z,80.21
2022-12-04T11:28:04.671Z,80.21
2022-12-04T11:29:04.763Z,80.10
2022-12-04T11:30:04.835Z,80.10
2022-12-04T11:31:04.973Z,80.10
2022-12-04T11:32:07.784Z,80.10
2022-12-04T11:33:05.083Z,80.21
2022-12-04T11:34:05.120Z,80.21
2022-12-04T11:35:05.215Z,80.21
2022-12-04T11:36:05.278Z,80.10
2022-12-04T11:37:05.377Z,80.10
2022-12-04T11:38:05.416Z,80.10
2022-12-04T11:39:05.553Z,80.21
2022-12-04T11:40:05.558Z,80.21
2022-12-04T11:41:05.661Z,80.21
2022-12-04T11:42:05.711Z,80.21
2022-12-04T11:43:05.813Z,80.21
2022-12-04T11:44:05.853Z,80.10
2022-12-04T11:45:05.969Z,80.21
2022-12-04T11:46:06.004Z,80.10
2022-12-04T11:47:06.242Z,80.10
2022-12-04T11:48:06.170Z,80.10
2022-12-04T11:49:06.245Z,80.10
2022-12-04T11:50:06.334Z,80.10
2022-12-04T11:51:06.441Z,80.10
2022-12-04T11:52:06.489Z,80.21
2022-12-04T11:53:06.577Z,80.21
2022-12-04T11:54:06.654Z,80.21
2022-12-04T11:55:06.758Z,80.21
2022-12-04T11:56:06.855Z,80.10
2022-12-04T11:57:06.956Z,80.10
2022-12-04T11:58:07.015Z,80.10
2022-12-04T11:59:07.097Z,80.10
2022-12-04T12:00:07.178Z,80.21
2022-12-04T12:01:07.306Z,80.21
2022-12-04T12:02:07.517Z,80.21
2022-12-04T12:03:07.561Z,80.21
2022-12-04T12:04:07.482Z,80.31
2022-12-04T12:05:07.588Z,80.31
2022-12-04T12:06:07.632Z,80.27
2022-12-04T12:07:07.746Z,80.27
2022-12-04T12:08:07.779Z,80.27
2022-12-04T12:09:07.864Z,80.27
2022-12-04T12:10:07.938Z,80.27
2022-12-04T12:11:08.059Z,80.27
2022-12-04T12:12:08.141Z,80.16
2022-12-04T12:13:08.194Z,80.16
2022-12-04T12:14:08.236Z,80.16
2022-12-04T12:15:08.318Z,80.16
2022-12-04T12:16:08.462Z,80.16
2022-12-04T12:17:08.516Z,80.16
2022-12-04T12:18:08.541Z,80.16
2022-12-04T12:19:08.611Z,80.16
2022-12-04T12:20:08.673Z,80.16
2022-12-04T12:21:08.746Z,80.16
2022-12-04T12:22:08.849Z,80.06
2022-12-04T12:23:08.940Z,80.06
2022-12-04T12:24:09.090Z,80.06
2022-12-04T12:25:09.088Z,80.06
2022-12-04T12:26:09.173Z,80.06
2022-12-04T12:27:09.267Z,80.06
2022-12-04T12:28:09.306Z,80.06
2022-12-04T12:29:09.385Z,80.16
2022-12-04T12:30:09.508Z,80.16
2022-12-04T12:31:09.602Z,80.16
2022-12-04T12:32:09.743Z,80.16
2022-12-04T12:33:09.736Z,80.16
2022-12-04T12:34:09.820Z,80.06
2022-12-04T12:35:09.921Z,80.16
2022-12-04T12:36:09.988Z,80.16
2022-12-04T12:37:10.102Z,80.16
2022-12-04T12:38:10.158Z,80.16
2022-12-04T12:39:10.246Z,80.16
2022-12-04T12:40:10.287Z,80.16
2022-12-04T12:41:10.363Z,80.16
2022-12-04T12:42:10.492Z,80.06
2022-12-04T12:43:10.580Z,80.06
2022-12-04T12:44:10.672Z,80.06
2022-12-04T12:45:10.677Z,80.06
2022-12-04T12:46:10.891Z,80.06
2022-12-04T12:47:10.854Z,79.96
2022-12-04T12:48:10.908Z,79.96
2022-12-04T12:49:10.971Z,79.96
2022-12-04T12:50:11.016Z,79.96
2022-12-04T12:52:11.196Z,79.96
2022-12-04T12:53:11.236Z,79.96
2022-12-04T12:54:11.323Z,79.96
2022-12-04T12:55:11.432Z,79.96
2022-12-04T12:56:13.175Z,79.96
2022-12-04T12:57:11.616Z,79.96
2022-12-04T12:58:11.706Z,79.96
2022-12-04T12:59:11.813Z,79.96
2022-12-04T13:00:11.882Z,79.96
2022-12-04T13:01:11.996Z,79.96
2022-12-04T13:02:12.078Z,79.96
2022-12-04T13:03:12.123Z,80.06
2022-12-04T13:04:12.213Z,80.06
2022-12-04T13:05:12.294Z,80.06
2022-12-04T13:06:12.391Z,80.06
2022-12-04T13:07:12.537Z,80.06
2022-12-04T13:08:12.597Z,80.06
2022-12-04T13:09:12.638Z,80.06
2022-12-04T13:10:12.732Z,80.06
2022-12-04T13:11:12.843Z,80.06
2022-12-04T13:12:12.924Z,80.06
2022-12-04T13:13:12.967Z,80.06
2022-12-04T13:14:13.053Z,80.06
2022-12-04T13:15:13.180Z,80.06
2022-12-04T13:16:13.269Z,80.06
2022-12-04T13:17:13.298Z,80.06
2022-12-04T13:18:13.370Z,80.06
2022-12-04T13:19:13.446Z,80.02
2022-12-04T13:20:13.532Z,80.02
2022-12-04T13:21:13.617Z,80.02
2022-12-04T13:22:13.745Z,80.02
2022-12-04T13:23:13.772Z,80.02
2022-12-04T13:24:13.856Z,80.02
2022-12-04T13:25:13.949Z,80.02
2022-12-04T13:26:14.036Z,80.02
2022-12-04T13:27:14.136Z,80.02
2022-12-04T13:28:14.169Z,80.02
2022-12-04T13:29:14.280Z,80.13
2022-12-04T13:30:14.321Z,80.13
2022-12-04T13:31:14.417Z,80.13
2022-12-04T13:32:14.657Z,80.13
2022-12-04T13:33:14.578Z,80.13
2022-12-04T13:34:14.679Z,80.13
2022-12-04T13:35:14.759Z,80.13
2022-12-04T13:36:14.839Z,80.13
2022-12-04T13:37:14.939Z,80.13
2022-12-04T13:38:15.037Z,80.13
2022-12-04T13:39:15.083Z,80.13
2022-12-04T13:40:15.248Z,80.13
2022-12-04T13:41:15.239Z,80.13
2022-12-04T13:42:15.340Z,80.13
2022-12-04T13:43:15.420Z,80.13
2022-12-04T13:44:15.562Z,80.13
2022-12-04T13:45:15.610Z,80.13
2022-12-04T13:46:15.736Z,80.13
2022-12-04T13:47:15.762Z,80.02
2022-12-04T13:48:15.856Z,80.02
2022-12-04T13:49:15.891Z,80.02
2022-12-04T13:50:15.965Z,80.02
2022-12-04T13:51:16.076Z,80.02
2022-12-04T13:52:16.199Z,80.02
2022-12-04T13:53:16.240Z,80.02
2022-12-04T13:54:16.324Z,80.02
2022-12-04T13:55:16.398Z,80.02
2022-12-04T13:56:16.488Z,80.02
2022-12-04T13:57:16.588Z,80.02
2022-12-04T13:58:16.659Z,79.92
2022-12-04T13:59:16.730Z,79.92
2022-12-04T14:00:16.813Z,79.92
2022-12-04T14:01:16.918Z,79.92
2022-12-04T14:02:17.038Z,79.92
2022-12-04T14:03:17.046Z,79.92
2022-12-04T14:04:17.134Z,79.92
2022-12-04T14:05:17.212Z,79.92
2022-12-04T14:06:17.296Z,79.92
2022-12-04T14:07:17.381Z,79.92
2022-12-04T14:08:17.539Z,79.92
2022-12-04T14:09:17.531Z,79.92
2022-12-04T14:10:17.644Z,79.88
2022-12-04T14:11:17.714Z,79.92
2022-12-04T14:12:17.842Z,79.92
2022-12-04T14:13:17.860Z,79.92
2022-12-04T14:14:17.943Z,79.92
2022-12-04T14:15:18.024Z,79.88
2022-12-04T14:16:18.129Z,80.02
2022-12-04T14:17:18.331Z,80.02
2022-12-04T14:18:18.309Z,80.09
2022-12-04T14:19:18.390Z,80.09
2022-12-04T14:20:18.472Z,80.09
2022-12-04T14:21:18.539Z,79.99
2022-12-04T14:22:18.646Z,79.99
2022-12-04T14:23:18.666Z,80.09
2022-12-04T14:24:18.781Z,80.09
2022-12-04T14:25:18.841Z,80.09
2022-12-04T14:26:18.932Z,80.09
2022-12-04T14:27:19.029Z,80.09
2022-12-04T14:28:19.124Z,80.09
2022-12-04T14:29:19.187Z,80.09
2022-12-04T14:30:19.269Z,80.09
2022-12-04T14:31:19.450Z,80.09
2022-12-04T14:32:19.463Z,80.09
2022-12-04T14:33:19.529Z,80.09
2022-12-04T14:34:19.606Z,80.19
2022-12-04T14:35:19.714Z,80.19
2022-12-04T14:36:19.750Z,80.19
2022-12-04T14:37:19.850Z,80.09
2022-12-04T14:38:19.947Z,80.09
2022-12-04T14:39:20.027Z,80.09
2022-12-04T14:40:20.121Z,80.09
2022-12-04T14:41:20.183Z,80.09
2022-12-04T14:42:20.274Z,79.99
2022-12-04T14:43:20.353Z,79.99
2022-12-04T14:44:20.439Z,79.99
2022-12-04T14:45:20.518Z,79.88
2022-12-04T14:46:20.649Z,79.88
2022-12-04T14:47:20.726Z,79.88
2022-12-04T14:48:20.760Z,79.88
2022-12-04T14:49:20.827Z,79.88
2022-12-04T14:50:20.911Z,79.88
2022-12-04T14:51:20.999Z,79.88
2022-12-04T14:52:21.094Z,79.88
2022-12-04T14:53:21.164Z,79.78
2022-12-04T14:54:21.246Z,79.78
2022-12-04T14:55:21.336Z,79.78
2022-12-04T14:56:21.424Z,79.78
2022-12-04T14:57:21.536Z,79.68
2022-12-04T14:58:21.585Z,79.68
2022-12-04T14:59:21.660Z,79.68
2022-12-04T15:00:21.736Z,79.58
2022-12-04T15:01:28.354Z,79.58
2022-12-04T15:02:21.950Z,79.68
2022-12-04T15:03:22.081Z,79.68
2022-12-04T15:04:22.123Z,79.68
2022-12-04T15:05:22.081Z,79.68
2022-12-04T15:06:22.173Z,79.68
2022-12-04T15:07:22.268Z,79.58
2022-12-04T15:08:22.381Z,79.58
2022-12-04T15:09:22.392Z,79.58
2022-12-04T15:10:22.492Z,79.58
2022-12-04T15:11:22.564Z,79.58
2022-12-04T15:12:22.656Z,79.58
2022-12-04T15:13:22.736Z,79.58
2022-12-04T15:14:22.805Z,79.58
2022-12-04T15:15:23.055Z,79.58
2022-12-04T15:16:23.071Z,79.58
2022-12-04T15:17:23.091Z,79.58
2022-12-04T15:18:23.182Z,79.58
2022-12-04T15:19:23.266Z,79.58
2022-12-04T15:20:23.349Z,79.58
2022-12-04T15:21:23.442Z,79.58
2022-12-04T15:22:23.563Z,79.58
2022-12-04T15:23:23.586Z,79.58
2022-12-04T15:24:23.669Z,79.58
2022-12-04T15:25:23.750Z,79.47
2022-12-04T15:26:23.831Z,79.58
2022-12-04T15:27:27.446Z,79.47
2022-12-04T15:28:23.998Z,79.47
2022-12-04T15:29:24.059Z,79.47
2022-12-04T15:30:24.165Z,79.47
2022-12-04T15:31:24.382Z,79.47
2022-12-04T15:32:24.347Z,79.47
2022-12-04T15:33:24.426Z,79.47
2022-12-04T15:34:24.515Z,79.47
2022-12-04T15:35:24.596Z,79.47
2022-12-04T15:36:24.659Z,79.47
2022-12-04T15:37:24.756Z,79.47
2022-12-04T15:38:24.842Z,79.58
2022-12-04T15:39:24.913Z,79.47
2022-12-04T15:40:25.020Z,79.47
2022-12-04T15:41:25.100Z,79.47
2022-12-04T15:42:25.218Z,79.58
2022-12-04T15:43:25.252Z,79.58
2022-12-04T15:44:25.334Z,79.58
2022-12-04T15:45:25.425Z,79.58
2022-12-04T15:46:25.564Z,79.47
2022-12-04T15:47:25.549Z,79.47
2022-12-04T15:48:25.625Z,79.47
2022-12-04T15:49:25.687Z,79.37
2022-12-04T15:50:25.826Z,79.47
2022-12-04T15:51:25.889Z,79.47
2022-12-04T15:52:25.985Z,79.37
2022-12-04T15:53:26.051Z,79.47
2022-12-04T15:54:26.118Z,79.47
2022-12-04T15:55:26.191Z,79.37
2022-12-04T15:56:26.271Z,79.47
2022-12-04T15:57:26.397Z,79.47
2022-12-04T15:58:26.465Z,79.37
2022-12-04T15:59:26.514Z,79.37
2022-12-04T16:00:26.607Z,79.47
2022-12-04T16:01:26.866Z,79.47
2022-12-04T16:02:26.808Z,79.47
2022-12-04T16:03:26.966Z,79.47
2022-12-04T16:04:26.984Z,79.47
2022-12-04T16:05:27.049Z,79.47
2022-12-04T16:06:27.130Z,79.47
2022-12-04T16:07:27.267Z,79.47
2022-12-04T16:08:27.320Z,79.47
2022-12-04T16:09:27.390Z,79.58
2022-12-04T16:10:27.483Z,79.58
2022-12-04T16:11:27.567Z,79.58
2022-12-04T16:12:27.667Z,79.58
2022-12-04T16:13:27.737Z,79.58
2022-12-04T16:14:27.814Z,79.58
2022-12-04T16:15:27.884Z,79.58
2022-12-04T16:16:28.055Z,79.58
2022-12-04T16:17:28.057Z,79.47
2022-12-04T16:18:28.148Z,79.47
2022-12-04T16:19:28.194Z,79.47
2022-12-04T16:20:28.329Z,79.47
2022-12-04T16:21:28.356Z,79.37
2022-12-04T16:22:28.464Z,79.37
2022-12-04T16:23:28.488Z,79.37
2022-12-04T16:24:28.593Z,79.37
2022-12-04T16:25:28.674Z,79.27
2022-12-04T16:26:28.745Z,79.27
2022-12-04T16:27:28.846Z,79.16
2022-12-04T16:28:28.925Z,79.16
2022-12-04T16:29:28.993Z,79.16
2022-12-04T16:30:29.082Z,79.16
2022-12-04T16:31:29.187Z,79.16
2022-12-04T16:32:29.248Z,79.27
2022-12-04T16:33:29.334Z,79.30
2022-12-04T16:34:29.484Z,79.30
2022-12-04T16:35:29.476Z,79.30
2022-12-04T16:36:29.546Z,79.41
2022-12-04T16:37:29.636Z,79.41
2022-12-04T16:38:29.741Z,79.37
2022-12-04T16:39:29.795Z,79.37
2022-12-04T16:40:29.888Z,79.37
2022-12-04T16:41:29.962Z,79.27
2022-12-04T16:42:30.076Z,79.27
2022-12-04T16:43:30.132Z,79.30
2022-12-04T16:44:30.232Z,79.37
2022-12-04T16:45:30.262Z,79.37
2022-12-04T16:46:30.384Z,79.37
2022-12-04T16:47:30.434Z,79.41
2022-12-04T16:48:30.516Z,79.37
2022-12-04T16:49:30.837Z,79.37
2022-12-04T16:50:30.700Z,79.37
2022-12-04T16:51:30.767Z,79.27
2022-12-04T16:52:30.891Z,79.27
2022-12-04T16:53:30.921Z,79.30
2022-12-04T16:54:31.009Z,79.27
2022-12-04T16:55:31.078Z,79.27
2022-12-04T16:56:31.187Z,79.27
2022-12-04T16:57:31.316Z,79.37
2022-12-04T16:58:31.370Z,79.37
2022-12-04T16:59:31.448Z,79.37
2022-12-04T17:00:31.537Z,79.41
2022-12-04T17:01:31.729Z,79.37
2022-12-04T17:02:31.707Z,79.47
2022-12-04T17:03:31.736Z,79.47
2022-12-04T17:04:31.885Z,79.37
2022-12-04T17:05:31.897Z,79.47
2022-12-04T17:06:31.994Z,79.47
2022-12-04T17:07:32.158Z,79.47
2022-12-04T17:08:32.152Z,79.47
2022-12-04T17:09:32.210Z,79.47
2022-12-04T17:10:32.276Z,79.47
2022-12-04T17:11:32.355Z,79.47
2022-12-04T17:12:32.869Z,79.37
2022-12-04T17:13:32.587Z,79.37
2022-12-04T17:14:32.764Z,79.37
2022-12-04T17:15:32.734Z,79.37
2022-12-04T17:16:32.966Z,79.37
2022-12-04T17:17:32.982Z,79.37
2022-12-04T17:18:33.015Z,79.37
2022-12-04T17:19:33.087Z,79.37
2022-12-04T17:20:33.141Z,79.37
2022-12-04T17:21:33.219Z,79.27
2022-12-04T17:22:36.374Z,79.27
2022-12-04T17:23:33.374Z,79.27
2022-12-04T17:24:33.457Z,79.27
2022-12-04T17:25:33.532Z,79.27
2022-12-04T17:26:33.621Z,79.27
2022-12-04T17:27:33.693Z,79.27
2022-12-04T17:28:33.786Z,79.27
2022-12-04T17:29:33.825Z,79.27
2022-12-04T17:30:36.176Z,79.27
2022-12-04T17:31:34.069Z,79.16
2022-12-04T17:32:34.323Z,79.16
2022-12-04T17:33:34.243Z,79.16
2022-12-04T17:34:34.259Z,79.16
2022-12-04T17:35:34.353Z,79.16
2022-12-04T17:36:34.440Z,79.27
2022-12-04T17:37:34.519Z,79.16
2022-12-04T17:38:34.607Z,79.16
2022-12-04T17:39:34.676Z,79.16
2022-12-04T17:40:34.795Z,79.16
2022-12-04T17:41:34.831Z,79.16
2022-12-04T17:42:34.904Z,79.27
2022-12-04T17:45:26.953Z,79.27
2022-12-04T17:48:26.172Z,79.51
2022-12-04T17:49:27.066Z,79.65
2022-12-04T17:50:27.077Z,79.85
2022-12-04T17:51:27.934Z,79.96
2022-12-04T17:52:27.222Z,79.85
2022-12-04T17:53:27.299Z,79.82
2022-12-04T17:54:27.400Z,79.82
2022-12-04T17:55:27.487Z,79.71
2022-12-04T17:56:27.575Z,79.71
2022-12-04T17:57:27.656Z,79.71
2022-12-04T17:58:27.755Z,79.71
2022-12-04T17:59:27.833Z,79.61
2022-12-04T18:03:12.721Z,79.61
2022-12-04T18:06:15.728Z,79.96
2022-12-04T18:07:16.719Z,79.96
2022-12-04T18:08:16.878Z,80.06
2022-12-04T18:09:16.956Z,80.06
2022-12-04T18:14:52.089Z,80.16
2022-12-04T18:15:53.153Z,80.16